createdAt,value
2024-04-05T00:01:27.651Z,20.5
2024-04-05T00:11:28.396Z,20.5
2024-04-05T00:21:29.110Z,20.5
2024-04-05T00:31:29.642Z,20.6
2024-04-05T00:41:30.270Z,20.6
2024-04-05T00:51:30.915Z,20.6
2024-04-05T01:01:31.217Z,20.6
2024-04-05T01:11:31.721Z,20.6
2024-04-05T01:21:32.194Z,20.6
2024-04-05T01:31:33.161Z,20.6
2024-04-05T01:41:34.157Z,20.6
2024-04-05T01:51:35.350Z,20.6
2024-04-05T02:01:35.694Z,20.6
2024-04-05T02:11:36.331Z,20.6
2024-04-05T02:21:36.558Z,20.5
2024-04-05T02:31:36.751Z,20.5
2024-04-05T02:41:37.643Z,20.5
2024-04-05T02:51:38.036Z,20.6
2024-04-05T03:01:38.676Z,20.5
2024-04-05T03:11:38.832Z,20.6
2024-04-05T03:21:39.710Z,20.6
2024-04-05T03:31:40.583Z,20.6
2024-04-05T03:41:40.994Z,20.6
2024-04-05T03:51:41.807Z,20.6
2024-04-05T04:01:42.671Z,20.6
2024-04-05T04:11:43.709Z,20.6
2024-04-05T04:21:43.947Z,20.6
2024-04-05T04:31:44.097Z,20.6
2024-04-05T04:41:44.747Z,20.6
2024-04-05T04:51:45.239Z,20.6
2024-04-05T05:01:46.130Z,20.6
2024-04-05T05:11:46.642Z,20.6
2024-04-05T05:21:47.105Z,20.6
2024-04-05T05:31:48.202Z,20.6
2024-04-05T05:41:49.136Z,20.6
2024-04-05T05:51:50.052Z,20.7
2024-04-05T06:01:51.101Z,20.7
2024-04-05T06:11:51.981Z,20.7
2024-04-05T06:21:52.496Z,20.7
2024-04-05T06:31:53.392Z,21
2024-04-05T06:41:54.165Z,21.6
2024-04-05T06:51:54.507Z,21.9
2024-04-05T07:01:55.604Z,23
2024-04-05T07:11:56.224Z,23.5
2024-04-05T07:21:56.848Z,24.4
2024-04-05T07:31:57.106Z,24.9
2024-04-05T07:41:57.253Z,24.5
2024-04-05T07:51:57.459Z,23.6
2024-04-05T08:01:58.207Z,23.1
2024-04-05T08:21:58.970Z,22.9
2024-04-05T08:31:59.125Z,23.1
2024-04-05T08:41:59.650Z,22.8
2024-04-05T08:51:59.738Z,22.5
2024-04-05T09:02:00.510Z,22.3
2024-04-05T09:12:01.032Z,22.3
2024-04-05T09:32:01.822Z,22.3
2024-04-05T09:42:02.632Z,22.3
2024-04-05T09:52:03.865Z,22.4
2024-04-05T10:02:04.530Z,22.6
2024-04-05T10:12:04.713Z,22.6
2024-04-05T10:22:05.380Z,22.4
2024-04-05T10:32:06.273Z,22.2
2024-04-05T10:42:06.479Z,22.1
2024-04-05T10:52:06.837Z,22.1
2024-04-05T11:02:06.974Z,22.3
2024-04-05T11:12:08.036Z,22.3
2024-04-05T11:22:08.625Z,22.1
2024-04-05T11:32:09.379Z,22.3
2024-04-05T11:42:09.528Z,22.4
2024-04-05T11:52:10.470Z,22.5
2024-04-05T11:52:32.372Z,22.5
2024-04-05T12:02:16.523Z,22.4
2024-04-05T12:22:17.802Z,22.9
2024-04-05T12:32:18.416Z,22.8
2024-04-05T12:42:18.524Z,22.9
2024-04-05T12:52:19.183Z,23.1
2024-04-05T13:02:21.168Z,23
2024-04-05T13:12:20.574Z,22.8
2024-04-05T13:22:20.931Z,22.7
2024-04-05T13:32:21.639Z,22.8
2024-04-05T13:42:22.264Z,22.8
2024-04-05T13:52:23.080Z,22.5
2024-04-05T14:02:23.839Z,22.3
2024-04-05T14:12:24.095Z,22.2
2024-04-05T14:22:24.792Z,22.4
2024-04-05T14:32:25.670Z,22.7
2024-04-05T14:42:26.178Z,22.8
2024-04-05T14:52:26.756Z,22.9
2024-04-05T15:02:27.358Z,22.8
2024-04-05T15:12:28.289Z,22.7
2024-04-05T15:22:28.762Z,22.7
2024-04-05T15:32:28.926Z,22.6
2024-04-05T15:42:29.626Z,22.5
2024-04-05T15:52:30.600Z,22.5
2024-04-05T16:02:31.120Z,22.4
2024-04-05T16:12:31.641Z,22.4
2024-04-05T16:22:32.391Z,22.3
2024-04-05T16:32:32.652Z,22.3
2024-04-05T16:52:33.242Z,22.1
2024-04-05T17:02:33.790Z,22
2024-04-05T17:12:34.632Z,21.9
2024-04-05T17:22:35.240Z,21.8
2024-04-05T17:32:35.642Z,21.7
2024-04-05T17:42:36.097Z,21.7
2024-04-05T17:52:36.724Z,21.5
2024-04-05T18:02:37.449Z,21.5
2024-04-05T18:12:37.786Z,21.4
2024-04-05T18:22:38.496Z,21.3
2024-04-05T18:32:39.333Z,21.3
2024-04-05T18:42:40.337Z,21.2
2024-04-05T18:52:41.086Z,21.1
2024-04-05T19:02:41.205Z,21.1
2024-04-05T19:12:41.817Z,21.1
2024-04-05T19:22:42.029Z,21.1
2024-04-05T19:32:43.075Z,21
2024-04-05T19:42:43.351Z,21
2024-04-05T19:52:43.463Z,21
2024-04-05T20:02:44.381Z,21
2024-04-05T20:12:44.654Z,21
2024-04-05T20:22:45.152Z,21
2024-04-05T22:22:52.674Z,20.9
2024-04-05T22:32:53.079Z,20.9
2024-04-05T22:42:53.543Z,20.9
2024-04-05T22:52:54.421Z,20.9
2024-04-05T23:02:55.459Z,20.9
2024-04-05T23:12:56.045Z,20.9
2024-04-05T23:22:57.078Z,20.9
2024-04-05T23:32:57.685Z,20.8
2024-04-05T23:42:58.458Z,20.9
2024-04-05T23:52:58.674Z,20.8
